Time;durP1;ratioP1;P1;durP2;ratioP2;P2;SDS_P1;SDS_P2;PMS_P1;PMS_P2;Temp;Humidity;BMP_temperature;BMP_pressure;BME280_temperature;BME280_humidity;BME280_pressure;Samples;Min_cycle;Max_cycle;Signal;HPM_P1;HPM_P2
2021/12/05 00:25:50;;;;;;;34.15;13.03;;;;;;;1.77;67.00;97582.89;3888246;90;21131;-85
2021/12/05 00:32:05;;;;;;;30.45;12.73;;;;;;;1.75;66.62;97585.19;3895617;89;21074;-84
2021/12/05 00:50:45;;;;;;;32.20;12.13;;;;;;;1.77;67.06;97590.23;3827682;91;21075;-85
2021/12/05 01:09:42;;;;;;;23.02;8.08;;;;;;;1.82;65.94;97589.96;3907498;89;21043;-85
2021/12/05 01:15:40;;;;;;;46.45;16.07;;;;;;;1.79;65.50;97591.98;3809287;91;21068;-86
2021/12/05 01:21:45;;;;;;;36.90;12.53;;;;;;;1.81;65.71;97601.87;3909712;89;21093;-85
2021/12/05 01:28:14;;;;;;;26.30;9.75;;;;;;;1.81;66.08;97601.31;3825356;91;21195;-84
2021/12/05 01:34:41;;;;;;;25.88;8.50;;;;;;;1.80;65.97;97596.27;3869973;91;21157;-85
2021/12/05 01:40:42;;;;;;;33.02;10.68;;;;;;;1.79;65.44;97596.03;3883657;90;21450;-84
2021/12/05 01:53:32;;;;;;;24.95;8.68;;;;;;;1.76;65.84;97591.34;3756050;93;21121;-84
2021/12/05 02:31:03;;;;;;;38.33;16.50;;;;;;;1.74;66.75;97595.73;3897722;89;21551;-84
2021/12/05 02:36:59;;;;;;;48.28;20.75;;;;;;;1.79;66.80;97595.47;3912964;89;21105;-84
2021/12/05 02:49:03;;;;;;;53.92;20.80;;;;;;;1.62;67.48;97609.34;3913015;89;21090;-83
2021/12/05 02:55:10;;;;;;;57.00;24.15;;;;;;;1.64;68.12;97614.59;3885070;89;21073;-84
2021/12/05 03:01:33;;;;;;;66.80;29.37;;;;;;;1.64;68.40;97634.81;3818132;91;21600;-84
2021/12/05 03:07:37;;;;;;;76.28;32.73;;;;;;;1.52;68.81;97631.43;3892305;89;21078;-84
2021/12/05 03:13:36;;;;;;;77.25;32.40;;;;;;;1.54;69.50;97619.19;3913471;89;21026;-84
2021/12/05 03:19:39;;;;;;;50.63;24.30;;;;;;;1.51;69.93;97613.14;3916198;89;21082;-85
2021/12/05 03:25:48;;;;;;;66.77;29.30;;;;;;;1.39;70.34;97617.25;3905957;90;22091;-85
2021/12/05 03:31:55;;;;;;;66.30;29.18;;;;;;;1.23;71.17;97613.80;3813238;91;21100;-85
2021/12/05 03:38:03;;;;;;;49.88;24.32;;;;;;;1.09;71.71;97610.73;3808022;92;21083;-84
2021/12/05 03:44:11;;;;;;;43.28;22.22;;;;;;;0.96;72.43;97609.23;3865613;90;21052;-85
2021/12/05 03:50:22;;;;;;;54.33;25.25;;;;;;;0.95;73.17;97609.58;3869065;90;21737;-85
2021/12/05 03:56:24;;;;;;;59.27;26.07;;;;;;;0.98;73.64;97608.33;3863222;90;21071;-84
2021/12/05 04:02:30;;;;;;;45.85;23.57;;;;;;;0.95;73.90;97600.94;3848172;90;21658;-84
2021/12/05 04:08:33;;;;;;;49.27;23.75;;;;;;;0.93;74.10;97606.44;3866732;91;21485;-85
2021/12/05 04:14:39;;;;;;;47.10;22.93;;;;;;;0.95;74.91;97606.88;3800111;91;21393;-84
2021/12/05 04:20:49;;;;;;;45.55;22.70;;;;;;;0.93;75.27;97615.31;3782841;91;21511;-85
2021/12/05 04:26:52;;;;;;;45.80;24.30;;;;;;;0.95;75.05;97617.11;3789503;91;21136;-83
2021/12/05 04:32:55;;;;;;;49.30;23.42;;;;;;;0.88;75.90;97626.34;3817381;91;21123;-83
2021/12/05 04:39:01;;;;;;;47.08;24.90;;;;;;;0.80;76.34;97623.23;3823669;91;21110;-84
2021/12/05 04:45:20;;;;;;;42.95;22.40;;;;;;;0.82;76.27;97633.66;3874566;90;21369;-84
2021/12/05 04:51:36;;;;;;;48.15;24.15;;;;;;;0.78;76.93;97632.23;3908068;90;21072;-84
2021/12/05 04:57:40;;;;;;;40.30;22.00;;;;;;;0.70;77.14;97631.03;3913345;90;21057;-85
2021/12/05 05:03:46;;;;;;;42.45;21.20;;;;;;;0.71;77.47;97640.11;3827061;91;21598;-84
2021/12/05 05:09:55;;;;;;;30.23;13.48;;;;;;;0.75;77.90;97640.22;3827427;92;21059;-84
2021/12/05 05:15:57;;;;;;;35.00;18.85;;;;;;;0.75;78.07;97639.63;3858579;91;26998;-83
2021/12/05 05:22:18;;;;;;;24.80;14.30;;;;;;;0.74;78.35;97642.67;3847105;91;21209;-84
2021/12/05 05:41:36;;;;;;;20.88;9.78;;;;;;;0.71;79.41;97644.70;3741371;93;21125;-83
2021/12/05 05:53:48;;;;;;;19.42;8.65;;;;;;;0.67;80.10;97664.03;3815531;91;21601;-84
2021/12/05 06:00:07;;;;;;;19.12;9.13;;;;;;;0.64;79.84;97662.82;3791720;93;21107;-84
2021/12/05 06:06:21;;;;;;;17.48;9.13;;;;;;;0.62;79.89;97671.00;3856035;90;21031;-83
2021/12/05 06:12:45;;;;;;;17.07;8.73;;;;;;;0.59;80.73;97673.83;3805294;93;21919;-83
2021/12/05 06:18:51;;;;;;;22.22;9.03;;;;;;;0.60;80.78;97678.63;3784296;93;21098;-83
2021/12/05 06:24:53;;;;;;;16.97;8.00;;;;;;;0.60;81.22;97683.47;3857267;91;21141;-84
2021/12/05 06:31:45;;;;;;;15.43;9.13;;;;;;;0.62;81.35;97672.34;3862051;90;21072;-84
2021/12/05 06:37:46;;;;;;;17.23;9.23;;;;;;;0.60;81.82;97678.63;3849406;91;21093;-83
2021/12/05 06:50:29;;;;;;;28.05;13.45;;;;;;;0.59;81.96;97694.03;3862272;91;21070;-84
2021/12/05 06:56:32;;;;;;;28.30;12.25;;;;;;;0.60;82.49;97698.28;3855757;91;21109;-84
2021/12/05 07:02:36;;;;;;;21.42;10.63;;;;;;;0.58;82.22;97709.17;3805037;93;21126;-83
2021/12/05 07:08:42;;;;;;;23.35;10.72;;;;;;;0.60;82.73;97706.36;3855222;89;102545;-83
2021/12/05 07:21:53;;;;;;;27.05;12.90;;;;;;;0.65;83.05;97720.14;3837670;90;21126;-83
2021/12/05 07:40:51;;;;;;;21.33;11.70;;;;;;;0.77;83.44;97727.63;3847354;90;22174;-84
2021/12/05 07:47:09;;;;;;;22.17;10.80;;;;;;;0.69;83.43;97717.77;3856109;91;21075;-81
2021/12/05 07:53:19;;;;;;;26.80;13.75;;;;;;;0.86;83.57;97725.57;3855908;91;21125;-83
2021/12/05 08:18:03;;;;;;;46.50;23.30;;;;;;;1.05;84.22;97731.70;3863717;91;21082;-83
2021/12/05 08:24:05;;;;;;;38.48;21.02;;;;;;;1.06;84.51;97730.56;3858319;90;21121;-82
2021/12/05 08:30:11;;;;;;;45.83;23.18;;;;;;;1.13;84.58;97732.88;3855552;91;21690;-83
2021/12/05 10:11:48;;;;;;;42.70;21.60;;;;;;;1.78;86.40;97765.80;3764177;93;21094;-84
2021/12/05 10:36:23;;;;;;;40.85;21.77;;;;;;;1.92;87.10;97787.75;3856467;90;21076;-84
2021/12/05 10:42:40;;;;;;;46.05;24.63;;;;;;;2.00;86.97;97784.11;3843370;90;21138;-84
2021/12/05 10:49:05;;;;;;;45.08;23.18;;;;;;;1.96;86.97;97790.75;3817634;92;21175;-83
2021/12/05 10:55:08;;;;;;;38.63;19.42;;;;;;;1.86;87.21;97789.94;3816604;90;81753;-84
2021/12/05 11:01:28;;;;;;;38.17;21.23;;;;;;;1.92;87.41;97791.80;3848579;90;21092;-83
2021/12/05 11:07:35;;;;;;;39.10;20.10;;;;;;;2.04;87.30;97803.86;3850397;91;21153;-84
2021/12/05 11:13:43;;;;;;;39.73;19.77;;;;;;;2.08;87.47;97810.14;3834542;91;21130;-85
2021/12/05 11:20:02;;;;;;;43.55;21.55;;;;;;;2.13;87.53;97809.89;3848366;91;21138;-81
2021/12/05 11:26:20;;;;;;;66.67;32.65;;;;;;;2.20;87.59;97794.65;3858268;91;21103;-84
2021/12/05 11:32:33;;;;;;;62.62;32.08;;;;;;;2.34;87.68;97794.98;3848807;91;21518;-84
2021/12/05 11:38:35;;;;;;;70.55;33.05;;;;;;;2.36;87.82;97793.28;3867868;89;22382;-84
2021/12/05 11:44:36;;;;;;;69.42;32.05;;;;;;;2.23;87.99;97804.75;3898605;89;21080;-83
2021/12/05 11:50:39;;;;;;;66.87;34.48;;;;;;;2.36;88.05;97816.24;3853382;90;21150;-84
2021/12/05 11:57:02;;;;;;;65.50;33.70;;;;;;;2.47;88.06;97817.28;3847787;91;21405;-84
2021/12/05 12:03:14;;;;;;;57.75;27.85;;;;;;;2.52;87.97;97821.84;3853102;91;21614;-84
2021/12/05 12:09:16;;;;;;;58.60;29.63;;;;;;;2.41;87.87;97836.23;3894986;89;21460;-84
2021/12/05 12:15:23;;;;;;;57.35;30.72;;;;;;;2.28;88.04;97852.30;3895598;90;21679;-85
2021/12/05 12:21:36;;;;;;;51.90;29.65;;;;;;;2.37;88.12;97860.45;3878292;90;21051;-84
2021/12/05 12:27:36;;;;;;;50.60;27.22;;;;;;;2.46;88.32;97852.19;3876980;90;21117;-84
2021/12/05 12:33:54;;;;;;;45.55;26.35;;;;;;;2.44;88.22;97864.69;3885815;90;21043;-84
2021/12/05 12:39:56;;;;;;;53.45;30.32;;;;;;;2.38;87.99;97859.89;3919822;88;21053;-84
2021/12/05 12:46:00;;;;;;;60.30;31.52;;;;;;;2.42;88.16;97851.30;3905174;89;21627;-84
2021/12/05 12:52:09;;;;;;;61.60;32.75;;;;;;;2.51;88.38;97843.80;3902871;89;21120;-83
2021/12/05 12:58:12;;;;;;;66.10;31.95;;;;;;;2.54;88.36;97838.48;3906935;89;21127;-84
2021/12/05 13:11:11;;;;;;;57.40;32.88;;;;;;;2.67;88.18;97837.82;3896325;89;21503;-85
2021/12/05 13:17:36;;;;;;;66.92;34.23;;;;;;;2.65;88.43;97832.77;3923917;89;21622;-85
2021/12/05 13:23:51;;;;;;;59.93;35.40;;;;;;;2.58;88.44;97839.38;3880068;90;21066;-84
2021/12/05 13:29:57;;;;;;;65.77;36.23;;;;;;;2.51;88.39;97844.59;3906999;89;22092;-84
2021/12/05 13:36:10;;;;;;;68.15;36.77;;;;;;;2.56;88.50;97838.92;3939155;89;21032;-84
2021/12/05 13:42:44;;;;;;;65.57;34.85;;;;;;;2.58;88.63;97831.27;3917276;88;21039;-84
2021/12/05 13:48:42;;;;;;;68.33;36.08;;;;;;;2.51;88.59;97841.89;3989317;88;21040;-84
2021/12/05 13:54:44;;;;;;;71.75;37.50;;;;;;;2.55;89.18;97839.28;3988344;89;21476;-85
2021/12/05 14:01:33;;;;;;;75.42;41.00;;;;;;;2.69;89.10;97834.20;3999289;88;21016;-85
2021/12/05 14:07:34;;;;;;;70.30;38.75;;;;;;;2.71;89.35;97840.81;3997942;88;21103;-85
2021/12/05 14:13:35;;;;;;;76.25;40.92;;;;;;;2.66;89.16;97855.17;3979895;89;21610;-85
2021/12/05 14:19:45;;;;;;;74.17;40.52;;;;;;;2.56;89.40;97852.44;3978542;88;21687;-85
2021/12/05 14:25:49;;;;;;;78.15;41.48;;;;;;;2.66;89.30;97859.23;3937250;89;21094;-84
2021/12/05 14:31:59;;;;;;;81.28;43.30;;;;;;;2.64;89.27;97863.63;3955607;89;21145;-84
2021/12/05 14:38:03;;;;;;;79.42;40.73;;;;;;;2.62;89.57;97867.80;3948035;89;21581;-84
2021/12/05 14:44:15;;;;;;;84.15;42.00;;;;;;;2.63;89.57;97878.84;3879126;89;21747;-85
2021/12/05 14:50:30;;;;;;;92.22;51.85;;;;;;;2.57;89.27;97881.59;3948843;90;21067;-85
2021/12/05 14:56:37;;;;;;;94.55;53.92;;;;;;;2.49;89.63;97886.61;3977874;88;21612;-84
2021/12/05 15:02:40;;;;;;;83.58;47.58;;;;;;;2.51;89.67;97895.13;3913230;90;21442;-84
2021/12/05 15:08:48;;;;;;;139.00;66.97;;;;;;;2.47;89.91;97909.91;3923118;90;21086;-85
2021/12/05 15:21:54;;;;;;;115.60;58.63;;;;;;;2.31;90.20;97934.77;3929010;90;21086;-84
2021/12/05 15:27:58;;;;;;;113.95;59.73;;;;;;;2.43;90.53;97938.73;3896102;90;21032;-85
2021/12/05 15:34:00;;;;;;;119.22;61.88;;;;;;;2.46;90.57;97944.03;3932376;90;21121;-84
2021/12/05 15:40:06;;;;;;;106.90;52.38;;;;;;;2.37;90.47;97944.17;3919108;89;21080;-84
2021/12/05 15:46:12;;;;;;;110.12;53.98;;;;;;;2.45;90.73;97947.28;3913880;88;21122;-85
2021/12/05 15:52:11;;;;;;;102.27;53.55;;;;;;;2.48;90.64;97957.39;3908322;89;21334;-84
2021/12/05 15:58:30;;;;;;;94.05;51.48;;;;;;;2.50;90.84;97956.48;3913118;89;21093;-84
2021/12/05 16:04:30;;;;;;;98.58;48.55;;;;;;;2.47;90.61;97946.38;3920655;88;93657;-85
2021/12/05 16:10:35;;;;;;;91.57;49.50;;;;;;;2.44;90.73;97947.63;3942525;88;21065;-84
2021/12/05 16:16:37;;;;;;;88.20;47.30;;;;;;;2.55;90.86;97950.81;3802310;92;21106;-86
2021/12/05 16:23:08;;;;;;;104.75;57.08;;;;;;;2.47;90.67;97942.33;3804759;92;21191;-84
2021/12/05 16:29:18;;;;;;;109.60;58.23;;;;;;;2.38;90.94;97938.98;3799129;92;21117;-83
2021/12/05 16:35:32;;;;;;;116.05;63.35;;;;;;;2.32;90.62;97948.47;3801985;92;21015;-85
2021/12/05 16:41:33;;;;;;;124.95;64.87;;;;;;;2.38;91.23;97949.79;3839567;91;21144;-84
2021/12/05 16:47:35;;;;;;;100.02;56.70;;;;;;;2.36;90.67;97947.22;3828002;92;21660;-84
2021/12/05 16:53:44;;;;;;;112.22;60.83;;;;;;;2.28;90.94;97945.47;3928767;89;21041;-85
2021/12/05 16:59:48;;;;;;;111.80;57.35;;;;;;;2.20;90.86;97961.25;3929598;89;21046;-85
2021/12/05 17:05:54;;;;;;;111.35;59.70;;;;;;;2.16;90.96;97959.80;3929471;89;21153;-85
2021/12/05 17:11:56;;;;;;;137.82;71.60;;;;;;;2.18;90.91;97954.84;3931653;89;21514;-84
2021/12/05 17:18:03;;;;;;;108.78;54.93;;;;;;;2.02;90.81;97953.25;3930144;89;21940;-84
2021/12/05 17:24:20;;;;;;;101.72;54.35;;;;;;;1.95;91.17;97964.63;3931351;89;21029;-84
2021/12/05 17:30:22;;;;;;;123.95;64.42;;;;;;;1.96;90.74;97966.77;3928030;89;21668;-84
2021/12/05 17:36:37;;;;;;;124.53;66.15;;;;;;;1.83;91.04;97961.19;3926973;89;21432;-84
2021/12/05 17:42:39;;;;;;;127.67;66.60;;;;;;;1.80;91.48;97960.52;3884797;89;21114;-84
2021/12/05 17:48:41;;;;;;;129.65;66.65;;;;;;;1.80;91.40;97959.97;3916969;89;21141;-84
2021/12/05 17:54:58;;;;;;;128.10;67.08;;;;;;;1.79;91.69;97967.03;3912284;89;21069;-85
2021/12/05 18:02:41;;;;;;;128.50;67.90;;;;;;;1.88;91.46;97965.77;3912860;89;21139;-84
2021/12/05 18:07:04;;;;;;;125.92;67.42;;;;;;;1.82;91.51;97967.72;3914213;89;21638;-84
2021/12/05 18:13:11;;;;;;;133.87;69.20;;;;;;;1.80;91.87;97972.67;3921009;89;21527;-84
2021/12/05 18:19:17;;;;;;;120.97;63.73;;;;;;;1.84;91.70;97978.94;3912152;89;21054;-84
2021/12/05 18:25:20;;;;;;;107.50;55.73;;;;;;;1.97;92.21;97985.33;3914399;89;21010;-84
2021/12/05 18:31:26;;;;;;;113.17;60.33;;;;;;;2.02;91.76;97997.20;3913796;89;21018;-85
2021/12/05 18:37:28;;;;;;;106.87;58.37;;;;;;;2.03;91.87;98013.64;3902079;89;21050;-84
2021/12/05 18:43:30;;;;;;;115.25;64.20;;;;;;;1.97;91.75;98021.77;3941239;89;21038;-84
2021/12/05 18:49:50;;;;;;;118.82;71.77;;;;;;;1.90;91.63;98028.29;3942108;89;21510;-85
2021/12/05 18:55:52;;;;;;;143.05;76.22;;;;;;;1.84;91.89;98039.10;3941328;89;21065;-84
2021/12/05 19:08:41;;;;;;;111.60;66.30;;;;;;;1.79;92.25;98052.83;3942167;89;21033;-84
2021/12/05 19:14:34;;;;;;;127.15;69.32;;;;;;;1.88;92.43;98058.88;3937783;89;21098;-84
2021/12/05 19:20:35;;;;;;;122.13;67.58;;;;;;;2.01;92.56;98068.52;3941742;89;21153;-85
2021/12/05 19:26:36;;;;;;;121.15;64.12;;;;;;;2.02;92.47;98063.34;3945288;89;21190;-84
2021/12/05 19:32:41;;;;;;;132.20;68.30;;;;;;;1.94;92.48;98055.39;3945294;88;21544;-84
2021/12/05 19:38:44;;;;;;;154.68;76.65;;;;;;;1.82;92.50;98067.56;3938640;89;21109;-84
2021/12/05 19:44:47;;;;;;;143.62;75.22;;;;;;;2.02;93.21;98082.81;3935086;89;21173;-85
2021/12/05 19:50:50;;;;;;;151.65;79.10;;;;;;;2.09;93.13;98085.16;3928170;87;21097;-86
2021/12/05 19:56:53;;;;;;;121.17;66.60;;;;;;;2.17;93.13;98080.19;3940690;89;21509;-84
2021/12/05 20:02:54;;;;;;;132.78;69.58;;;;;;;2.09;92.88;98085.16;3888903;90;21700;-84
2021/12/05 20:08:56;;;;;;;147.87;78.47;;;;;;;2.07;92.60;98078.54;3934022;89;21076;-84
2021/12/05 20:14:57;;;;;;;190.97;92.37;;;;;;;2.06;92.69;98076.39;3937781;89;21500;-84
2021/12/05 20:21:04;;;;;;;191.50;95.10;;;;;;;2.07;93.13;98056.94;3933660;89;21612;-87
2021/12/05 20:27:06;;;;;;;182.90;92.92;;;;;;;2.05;93.05;98069.98;3930671;89;21520;-84
2021/12/05 20:33:10;;;;;;;155.15;82.30;;;;;;;2.18;93.63;98066.11;3827619;88;10000036;-85
2021/12/05 20:39:16;;;;;;;165.92;85.07;;;;;;;2.24;93.18;98068.23;3934367;88;21092;-84
2021/12/05 20:45:24;;;;;;;162.05;88.25;;;;;;;2.15;92.87;98066.23;3936103;89;21132;-84
2021/12/05 20:51:29;;;;;;;151.42;83.10;;;;;;;2.01;92.96;98064.48;3929494;89;21069;-84
2021/12/05 20:57:30;;;;;;;178.23;93.60;;;;;;;2.01;93.23;98073.92;3931514;89;21085;-85
2021/12/05 21:03:34;;;;;;;173.62;90.67;;;;;;;2.09;93.18;98078.96;3933641;89;21102;-84
2021/12/05 21:09:39;;;;;;;159.50;87.45;;;;;;;2.14;93.26;98067.38;3905219;89;21057;-84
2021/12/05 21:15:51;;;;;;;165.68;88.35;;;;;;;2.03;92.87;98054.69;3926187;89;21072;-84
2021/12/05 21:21:58;;;;;;;174.47;92.05;;;;;;;2.03;93.00;98041.98;3925067;89;21065;-84
2021/12/05 21:28:06;;;;;;;165.95;86.53;;;;;;;2.02;93.07;98034.99;3929884;89;21069;-84
2021/12/05 21:34:11;;;;;;;;;;;;;;;1.93;93.23;98022.79;3925083;89;21095;-84
2021/12/05 21:40:19;;;;;;;179.05;93.35;;;;;;;1.95;93.15;98021.31;3924426;89;20121;-84
2021/12/05 21:46:20;;;;;;;180.93;92.12;;;;;;;1.66;93.39;98029.67;3921351;91;21130;-84
2021/12/05 21:52:22;;;;;;;154.38;84.47;;;;;;;1.59;93.42;98028.92;3917839;89;21680;-83
2021/12/05 21:58:29;;;;;;;157.80;85.53;;;;;;;1.73;93.89;98039.34;3922831;89;21026;-83
2021/12/05 22:04:31;;;;;;;;;;;;;;;1.84;93.94;98047.20;3919329;90;21022;-83
2021/12/05 22:10:33;;;;;;;142.90;76.07;;;;;;;1.88;93.69;98059.45;3918314;90;20200;-84
2021/12/05 22:16:43;;;;;;;163.50;82.02;;;;;;;1.94;93.97;98072.94;3920065;89;21771;-85
2021/12/05 22:22:44;;;;;;;150.62;79.80;;;;;;;2.01;93.85;98071.23;3914235;90;21133;-84
2021/12/05 22:28:48;;;;;;;150.05;79.27;;;;;;;2.01;94.03;98067.73;3917914;90;21631;-84
2021/12/05 22:34:51;;;;;;;153.40;80.25;;;;;;;1.95;93.98;98071.24;3929219;89;21054;-84
2021/12/05 22:40:52;;;;;;;153.25;82.20;;;;;;;2.00;94.25;98072.36;3912634;89;21098;-84
2021/12/05 22:46:54;;;;;;;155.70;79.17;;;;;;;1.98;94.04;98077.86;3915812;89;21664;-86
2021/12/05 22:52:57;;;;;;;145.05;73.85;;;;;;;1.90;94.14;98078.22;3921119;90;21491;-84
2021/12/05 22:58:59;;;;;;;130.55;68.02;;;;;;;1.90;94.24;98075.52;3919613;90;21086;-83
2021/12/05 23:05:01;;;;;;;135.12;69.12;;;;;;;2.02;94.15;98072.78;3917882;90;21062;-83
2021/12/05 23:11:08;;;;;;;123.02;68.83;;;;;;;2.07;94.32;98068.50;3920090;89;21729;-84
2021/12/05 23:17:15;;;;;;;126.30;68.75;;;;;;;2.08;94.19;98067.40;3921963;89;21109;-84
2021/12/05 23:23:25;;;;;;;144.87;71.60;;;;;;;2.07;94.04;98065.80;3918736;90;21046;-84
2021/12/05 23:29:32;;;;;;;125.65;68.78;;;;;;;2.07;94.00;98073.14;3921178;90;21077;-84
2021/12/05 23:35:39;;;;;;;134.50;69.95;;;;;;;2.08;94.04;98087.64;3916723;90;21082;-85
2021/12/05 23:41:42;;;;;;;147.87;72.87;;;;;;;2.12;94.06;98091.22;3940493;89;21387;-85
2021/12/05 23:47:47;;;;;;;134.45;71.77;;;;;;;2.07;93.81;98096.09;3949833;89;21103;-85
2021/12/05 23:54:08;;;;;;;132.78;69.15;;;;;;;1.94;93.90;98104.77;3956133;89;21705;-84
